sensor_id;sensor_type;location;lat;lon;timestamp;temperature;humidity
83770;DHT22;73763;48.936;9.300;2024-01-15T00:00:02;-2.70;93.90
83770;DHT22;73763;48.936;9.300;2024-01-15T00:02:28;-2.60;93.90
83770;DHT22;73763;48.936;9.300;2024-01-15T00:04:53;-2.70;93.80
83770;DHT22;73763;48.936;9.300;2024-01-15T00:07:19;-2.60;93.80
83770;DHT22;73763;48.936;9.300;2024-01-15T00:09:45;-2.60;93.90
83770;DHT22;73763;48.936;9.300;2024-01-15T00:12:10;-2.60;94.10
83770;DHT22;73763;48.936;9.300;2024-01-15T00:14:36;-2.60;93.90
83770;DHT22;73763;48.936;9.300;2024-01-15T00:17:01;-2.60;93.90
83770;DHT22;73763;48.936;9.300;2024-01-15T00:19:27;-2.60;93.80
83770;DHT22;73763;48.936;9.300;2024-01-15T00:21:52;-2.60;93.80
83770;DHT22;73763;48.936;9.300;2024-01-15T00:24:18;-2.50;93.60
83770;DHT22;73763;48.936;9.300;2024-01-15T00:26:43;-2.50;93.50
83770;DHT22;73763;48.936;9.300;2024-01-15T00:29:09;-2.50;93.50
83770;DHT22;73763;48.936;9.300;2024-01-15T00:31:35;-2.40;93.50
83770;DHT22;73763;48.936;9.300;2024-01-15T00:34:01;-2.40;93.40
83770;DHT22;73763;48.936;9.300;2024-01-15T00:36:26;-2.40;93.20
83770;DHT22;73763;48.936;9.300;2024-01-15T00:38:53;-2.30;93.30
83770;DHT22;73763;48.936;9.300;2024-01-15T00:41:18;-2.30;93.20
83770;DHT22;73763;48.936;9.300;2024-01-15T00:43:45;-2.30;93.10
83770;DHT22;73763;48.936;9.300;2024-01-15T00:46:10;-2.30;93.10
83770;DHT22;73763;48.936;9.300;2024-01-15T00:48:36;-2.30;93.10
83770;DHT22;73763;48.936;9.300;2024-01-15T00:51:02;-2.30;93.00
83770;DHT22;73763;48.936;9.300;2024-01-15T00:53:27;-2.30;93.00
83770;DHT22;73763;48.936;9.300;2024-01-15T00:55:53;-2.20;93.00
83770;DHT22;73763;48.936;9.300;2024-01-15T00:58:19;-2.20;93.10
83770;DHT22;73763;48.936;9.300;2024-01-15T01:00:44;-2.20;93.10
83770;DHT22;73763;48.936;9.300;2024-01-15T01:03:10;-2.20;93.30
83770;DHT22;73763;48.936;9.300;2024-01-15T01:05:35;-2.20;93.30
83770;DHT22;73763;48.936;9.300;2024-01-15T01:08:01;-2.20;93.30
83770;DHT22;73763;48.936;9.300;2024-01-15T01:10:27;-2.20;93.40
83770;DHT22;73763;48.936;9.300;2024-01-15T01:12:52;-2.20;93.50
83770;DHT22;73763;48.936;9.300;2024-01-15T01:15:18;-2.20;93.70
83770;DHT22;73763;48.936;9.300;2024-01-15T01:17:44;-2.20;93.90
83770;DHT22;73763;48.936;9.300;2024-01-15T01:20:10;-2.10;94.00
83770;DHT22;73763;48.936;9.300;2024-01-15T01:22:36;-2.20;93.80
83770;DHT22;73763;48.936;9.300;2024-01-15T01:25:02;-2.20;93.90
83770;DHT22;73763;48.936;9.300;2024-01-15T01:27:27;-2.20;93.90
83770;DHT22;73763;48.936;9.300;2024-01-15T01:29:53;-2.20;94.00
83770;DHT22;73763;48.936;9.300;2024-01-15T01:32:18;-2.20;94.00
83770;DHT22;73763;48.936;9.300;2024-01-15T01:34:44;-2.10;94.10
83770;DHT22;73763;48.936;9.300;2024-01-15T01:37:12;-2.10;94.00
83770;DHT22;73763;48.936;9.300;2024-01-15T01:39:38;-2.10;94.00
83770;DHT22;73763;48.936;9.300;2024-01-15T01:42:03;-2.10;93.90
83770;DHT22;73763;48.936;9.300;2024-01-15T01:44:29;-2.00;94.20
83770;DHT22;73763;48.936;9.300;2024-01-15T01:46:55;-2.00;94.20
83770;DHT22;73763;48.936;9.300;2024-01-15T01:49:22;-2.00;94.20
83770;DHT22;73763;48.936;9.300;2024-01-15T01:51:48;-2.00;94.20
83770;DHT22;73763;48.936;9.300;2024-01-15T01:54:14;-2.00;94.20
83770;DHT22;73763;48.936;9.300;2024-01-15T01:56:41;-1.90;94.30
83770;DHT22;73763;48.936;9.300;2024-01-15T01:59:08;-1.90;94.30
83770;DHT22;73763;48.936;9.300;2024-01-15T02:01:34;-1.90;94.20
83770;DHT22;73763;48.936;9.300;2024-01-15T02:04:00;-1.90;94.10
83770;DHT22;73763;48.936;9.300;2024-01-15T02:06:26;-1.90;94.00
83770;DHT22;73763;48.936;9.300;2024-01-15T02:08:52;-1.80;94.20
83770;DHT22;73763;48.936;9.300;2024-01-15T02:11:17;-1.80;94.20
83770;DHT22;73763;48.936;9.300;2024-01-15T02:13:43;-1.80;94.10
83770;DHT22;73763;48.936;9.300;2024-01-15T02:16:08;-1.70;94.10
83770;DHT22;73763;48.936;9.300;2024-01-15T02:18:44;-1.70;94.00
83770;DHT22;73763;48.936;9.300;2024-01-15T02:21:10;-1.70;93.90
83770;DHT22;73763;48.936;9.300;2024-01-15T02:23:36;-1.60;93.80
83770;DHT22;73763;48.936;9.300;2024-01-15T02:26:01;-1.60;93.70
83770;DHT22;73763;48.936;9.300;2024-01-15T02:28:27;-1.50;93.70
83770;DHT22;73763;48.936;9.300;2024-01-15T02:30:53;-1.60;93.60
83770;DHT22;73763;48.936;9.300;2024-01-15T02:33:19;-1.50;93.70
83770;DHT22;73763;48.936;9.300;2024-01-15T02:35:44;-1.50;93.60
83770;DHT22;73763;48.936;9.300;2024-01-15T02:38:10;-1.50;93.70
83770;DHT22;73763;48.936;9.300;2024-01-15T02:40:35;-1.50;93.80
83770;DHT22;73763;48.936;9.300;2024-01-15T02:43:01;-1.50;93.90
83770;DHT22;73763;48.936;9.300;2024-01-15T02:45:26;-1.40;94.00
83770;DHT22;73763;48.936;9.300;2024-01-15T02:47:52;-1.40;94.00
83770;DHT22;73763;48.936;9.300;2024-01-15T02:50:18;-1.30;93.90
83770;DHT22;73763;48.936;9.300;2024-01-15T02:52:43;-1.30;93.90
83770;DHT22;73763;48.936;9.300;2024-01-15T02:55:09;-1.30;93.80
83770;DHT22;73763;48.936;9.300;2024-01-15T02:57:35;-1.20;93.70
83770;DHT22;73763;48.936;9.300;2024-01-15T03:00:00;-1.20;93.60
83770;DHT22;73763;48.936;9.300;2024-01-15T03:02:26;-1.20;93.50
83770;DHT22;73763;48.936;9.300;2024-01-15T03:04:52;-1.10;93.40
83770;DHT22;73763;48.936;9.300;2024-01-15T03:07:18;-1.10;93.30
83770;DHT22;73763;48.936;9.300;2024-01-15T03:09:43;-1.10;93.30
83770;DHT22;73763;48.936;9.300;2024-01-15T03:12:09;-1.10;93.30
83770;DHT22;73763;48.936;9.300;2024-01-15T03:14:35;-1.10;93.20
83770;DHT22;73763;48.936;9.300;2024-01-15T03:17:01;-1.10;93.50
83770;DHT22;73763;48.936;9.300;2024-01-15T03:19:27;-1.10;93.50
83770;DHT22;73763;48.936;9.300;2024-01-15T03:21:52;-1.10;93.50
83770;DHT22;73763;48.936;9.300;2024-01-15T03:24:18;-1.10;93.50
83770;DHT22;73763;48.936;9.300;2024-01-15T03:26:43;-1.20;93.50
83770;DHT22;73763;48.936;9.300;2024-01-15T03:29:09;-1.20;93.70
83770;DHT22;73763;48.936;9.300;2024-01-15T03:31:34;-1.20;93.70
83770;DHT22;73763;48.936;9.300;2024-01-15T03:34:00;-1.20;93.80
83770;DHT22;73763;48.936;9.300;2024-01-15T03:36:25;-1.30;93.80
83770;DHT22;73763;48.936;9.300;2024-01-15T03:38:51;-1.30;93.80
83770;DHT22;73763;48.936;9.300;2024-01-15T03:41:16;-1.30;93.70
83770;DHT22;73763;48.936;9.300;2024-01-15T03:43:42;-1.20;93.40
83770;DHT22;73763;48.936;9.300;2024-01-15T03:46:08;-1.20;93.40
83770;DHT22;73763;48.936;9.300;2024-01-15T03:48:33;-1.20;93.50
83770;DHT22;73763;48.936;9.300;2024-01-15T03:50:59;-1.20;93.60
83770;DHT22;73763;48.936;9.300;2024-01-15T03:53:24;-1.30;93.70
83770;DHT22;73763;48.936;9.300;2024-01-15T03:55:50;-1.30;93.90
83770;DHT22;73763;48.936;9.300;2024-01-15T03:58:15;-1.40;94.00
83770;DHT22;73763;48.936;9.300;2024-01-15T04:00:42;-1.40;94.00
83770;DHT22;73763;48.936;9.300;2024-01-15T04:03:08;-1.40;94.10
83770;DHT22;73763;48.936;9.300;2024-01-15T04:05:33;-1.40;94.10
83770;DHT22;73763;48.936;9.300;2024-01-15T04:07:59;-1.40;94.10
83770;DHT22;73763;48.936;9.300;2024-01-15T04:10:24;-1.30;93.80
83770;DHT22;73763;48.936;9.300;2024-01-15T04:12:50;-1.30;93.70
83770;DHT22;73763;48.936;9.300;2024-01-15T04:15:15;-1.20;93.70
83770;DHT22;73763;48.936;9.300;2024-01-15T04:17:41;-1.20;93.70
83770;DHT22;73763;48.936;9.300;2024-01-15T04:20:07;-1.20;93.80
83770;DHT22;73763;48.936;9.300;2024-01-15T04:22:34;-1.20;93.70
83770;DHT22;73763;48.936;9.300;2024-01-15T04:25:00;-1.10;93.70
83770;DHT22;73763;48.936;9.300;2024-01-15T04:27:26;-1.10;93.80
83770;DHT22;73763;48.936;9.300;2024-01-15T04:29:51;-1.00;93.70
83770;DHT22;73763;48.936;9.300;2024-01-15T04:32:17;-1.00;93.60
83770;DHT22;73763;48.936;9.300;2024-01-15T04:34:42;-0.90;93.60
83770;DHT22;73763;48.936;9.300;2024-01-15T04:37:08;-0.90;93.60
83770;DHT22;73763;48.936;9.300;2024-01-15T04:39:33;-0.80;93.40
83770;DHT22;73763;48.936;9.300;2024-01-15T04:41:59;-0.80;93.30
83770;DHT22;73763;48.936;9.300;2024-01-15T04:44:24;-0.80;93.20
83770;DHT22;73763;48.936;9.300;2024-01-15T04:46:50;-0.80;93.20
83770;DHT22;73763;48.936;9.300;2024-01-15T04:49:15;-0.70;93.10
83770;DHT22;73763;48.936;9.300;2024-01-15T04:51:41;-0.70;93.00
83770;DHT22;73763;48.936;9.300;2024-01-15T04:54:06;-0.70;93.00
83770;DHT22;73763;48.936;9.300;2024-01-15T04:56:32;-0.60;92.90
83770;DHT22;73763;48.936;9.300;2024-01-15T04:58:57;-0.60;93.00
83770;DHT22;73763;48.936;9.300;2024-01-15T05:01:23;-0.70;93.00
83770;DHT22;73763;48.936;9.300;2024-01-15T05:03:48;-0.70;93.10
83770;DHT22;73763;48.936;9.300;2024-01-15T05:06:14;-0.70;93.10
83770;DHT22;73763;48.936;9.300;2024-01-15T05:08:40;-0.70;93.10
83770;DHT22;73763;48.936;9.300;2024-01-15T05:11:05;-0.70;93.20
83770;DHT22;73763;48.936;9.300;2024-01-15T05:13:31;-0.70;93.20
83770;DHT22;73763;48.936;9.300;2024-01-15T05:15:56;-0.70;93.20
83770;DHT22;73763;48.936;9.300;2024-01-15T05:18:22;-0.70;93.20
83770;DHT22;73763;48.936;9.300;2024-01-15T05:20:47;-0.70;93.20
83770;DHT22;73763;48.936;9.300;2024-01-15T05:23:13;-0.80;93.30
83770;DHT22;73763;48.936;9.300;2024-01-15T05:25:38;-0.80;93.30
83770;DHT22;73763;48.936;9.300;2024-01-15T05:28:05;-0.70;93.20
83770;DHT22;73763;48.936;9.300;2024-01-15T05:30:31;-0.70;93.20
83770;DHT22;73763;48.936;9.300;2024-01-15T05:32:56;-0.70;93.20
83770;DHT22;73763;48.936;9.300;2024-01-15T05:35:22;-0.70;92.90
83770;DHT22;73763;48.936;9.300;2024-01-15T05:37:47;-0.60;92.80
83770;DHT22;73763;48.936;9.300;2024-01-15T05:40:13;-0.60;92.80
83770;DHT22;73763;48.936;9.300;2024-01-15T05:42:39;-0.70;92.70
83770;DHT22;73763;48.936;9.300;2024-01-15T05:45:05;-0.70;92.90
83770;DHT22;73763;48.936;9.300;2024-01-15T05:47:31;-0.70;93.00
83770;DHT22;73763;48.936;9.300;2024-01-15T05:49:57;-0.70;93.00
83770;DHT22;73763;48.936;9.300;2024-01-15T05:52:23;-0.60;92.70
83770;DHT22;73763;48.936;9.300;2024-01-15T05:54:49;-0.50;92.00
83770;DHT22;73763;48.936;9.300;2024-01-15T05:57:15;-0.50;91.90
83770;DHT22;73763;48.936;9.300;2024-01-15T05:59:42;-0.40;91.80
83770;DHT22;73763;48.936;9.300;2024-01-15T06:02:08;-0.40;91.70
83770;DHT22;73763;48.936;9.300;2024-01-15T06:04:33;-0.40;91.60
83770;DHT22;73763;48.936;9.300;2024-01-15T06:06:59;-0.40;91.60
83770;DHT22;73763;48.936;9.300;2024-01-15T06:09:24;-0.40;91.70
83770;DHT22;73763;48.936;9.300;2024-01-15T06:11:50;-0.40;91.70
83770;DHT22;73763;48.936;9.300;2024-01-15T06:14:15;-0.30;91.40
83770;DHT22;73763;48.936;9.300;2024-01-15T06:16:41;-0.30;91.50
83770;DHT22;73763;48.936;9.300;2024-01-15T06:19:06;-0.30;91.60
83770;DHT22;73763;48.936;9.300;2024-01-15T06:21:32;-0.30;91.50
83770;DHT22;73763;48.936;9.300;2024-01-15T06:23:57;-0.30;91.60
83770;DHT22;73763;48.936;9.300;2024-01-15T06:26:23;-0.30;91.50
83770;DHT22;73763;48.936;9.300;2024-01-15T06:28:48;-0.30;91.60
83770;DHT22;73763;48.936;9.300;2024-01-15T06:31:14;-0.30;91.80
83770;DHT22;73763;48.936;9.300;2024-01-15T06:33:39;-0.30;91.80
83770;DHT22;73763;48.936;9.300;2024-01-15T06:36:05;-0.30;91.90
83770;DHT22;73763;48.936;9.300;2024-01-15T06:38:31;-0.30;91.70
83770;DHT22;73763;48.936;9.300;2024-01-15T06:40:56;-0.20;91.50
83770;DHT22;73763;48.936;9.300;2024-01-15T06:43:22;-0.20;91.40
83770;DHT22;73763;48.936;9.300;2024-01-15T06:45:48;-0.20;91.30
83770;DHT22;73763;48.936;9.300;2024-01-15T06:48:13;-0.20;91.30
83770;DHT22;73763;48.936;9.300;2024-01-15T06:50:39;-0.20;91.10
83770;DHT22;73763;48.936;9.300;2024-01-15T06:53:04;-0.20;91.20
83770;DHT22;73763;48.936;9.300;2024-01-15T06:55:30;-0.10;91.30
83770;DHT22;73763;48.936;9.300;2024-01-15T06:57:55;-0.20;91.20
83770;DHT22;73763;48.936;9.300;2024-01-15T07:00:21;-0.20;91.30
83770;DHT22;73763;48.936;9.300;2024-01-15T07:02:46;-0.20;91.40
83770;DHT22;73763;48.936;9.300;2024-01-15T07:05:12;-0.20;91.50
83770;DHT22;73763;48.936;9.300;2024-01-15T07:07:37;-0.20;91.60
83770;DHT22;73763;48.936;9.300;2024-01-15T07:10:03;-0.20;91.70
83770;DHT22;73763;48.936;9.300;2024-01-15T07:12:30;-0.20;92.00
83770;DHT22;73763;48.936;9.300;2024-01-15T07:14:56;-0.30;92.10
83770;DHT22;73763;48.936;9.300;2024-01-15T07:17:22;-0.20;92.00
83770;DHT22;73763;48.936;9.300;2024-01-15T07:19:47;-0.30;91.80
83770;DHT22;73763;48.936;9.300;2024-01-15T07:22:13;-0.30;91.70
83770;DHT22;73763;48.936;9.300;2024-01-15T07:24:38;-0.30;91.60
83770;DHT22;73763;48.936;9.300;2024-01-15T07:27:04;-0.20;91.50
83770;DHT22;73763;48.936;9.300;2024-01-15T07:29:30;-0.10;91.30
83770;DHT22;73763;48.936;9.300;2024-01-15T07:31:55;-0.10;91.10
83770;DHT22;73763;48.936;9.300;2024-01-15T07:34:21;-0.10;90.80
83770;DHT22;73763;48.936;9.300;2024-01-15T07:36:46;0.00;90.70
83770;DHT22;73763;48.936;9.300;2024-01-15T07:39:12;0.00;90.70
83770;DHT22;73763;48.936;9.300;2024-01-15T07:41:38;0.00;90.70
83770;DHT22;73763;48.936;9.300;2024-01-15T07:44:03;0.00;90.50
83770;DHT22;73763;48.936;9.300;2024-01-15T07:46:29;0.10;90.40
83770;DHT22;73763;48.936;9.300;2024-01-15T07:48:54;0.10;90.70
83770;DHT22;73763;48.936;9.300;2024-01-15T07:51:20;0.10;90.60
83770;DHT22;73763;48.936;9.300;2024-01-15T07:53:45;0.10;90.60
83770;DHT22;73763;48.936;9.300;2024-01-15T07:56:11;0.20;90.60
83770;DHT22;73763;48.936;9.300;2024-01-15T07:58:36;0.20;90.50
83770;DHT22;73763;48.936;9.300;2024-01-15T08:01:02;0.20;90.40
83770;DHT22;73763;48.936;9.300;2024-01-15T08:03:27;0.30;90.30
83770;DHT22;73763;48.936;9.300;2024-01-15T08:05:53;0.20;90.30
83770;DHT22;73763;48.936;9.300;2024-01-15T08:08:18;0.30;90.20
83770;DHT22;73763;48.936;9.300;2024-01-15T08:10:44;0.30;90.00
83770;DHT22;73763;48.936;9.300;2024-01-15T08:13:09;0.30;90.00
83770;DHT22;73763;48.936;9.300;2024-01-15T08:15:35;0.30;90.00
83770;DHT22;73763;48.936;9.300;2024-01-15T08:18:00;0.40;89.80
83770;DHT22;73763;48.936;9.300;2024-01-15T08:20:26;0.40;89.60
83770;DHT22;73763;48.936;9.300;2024-01-15T08:22:51;0.40;89.50
83770;DHT22;73763;48.936;9.300;2024-01-15T08:25:17;0.40;89.20
83770;DHT22;73763;48.936;9.300;2024-01-15T08:27:42;0.50;88.80
83770;DHT22;73763;48.936;9.300;2024-01-15T08:30:08;0.50;88.80
83770;DHT22;73763;48.936;9.300;2024-01-15T08:32:34;0.50;88.90
83770;DHT22;73763;48.936;9.300;2024-01-15T08:35:00;0.50;89.10
83770;DHT22;73763;48.936;9.300;2024-01-15T08:37:25;0.60;88.70
83770;DHT22;73763;48.936;9.300;2024-01-15T08:39:51;0.60;88.80
83770;DHT22;73763;48.936;9.300;2024-01-15T08:42:16;0.60;88.10
83770;DHT22;73763;48.936;9.300;2024-01-15T08:44:42;0.60;87.80
83770;DHT22;73763;48.936;9.300;2024-01-15T08:47:07;0.60;88.50
83770;DHT22;73763;48.936;9.300;2024-01-15T08:49:33;0.60;88.70
83770;DHT22;73763;48.936;9.300;2024-01-15T08:51:58;0.70;89.10
83770;DHT22;73763;48.936;9.300;2024-01-15T08:54:24;0.70;89.40
83770;DHT22;73763;48.936;9.300;2024-01-15T08:56:49;0.70;88.70
83770;DHT22;73763;48.936;9.300;2024-01-15T08:59:15;0.80;89.00
83770;DHT22;73763;48.936;9.300;2024-01-15T09:01:40;0.80;88.80
83770;DHT22;73763;48.936;9.300;2024-01-15T09:04:06;0.90;89.20
83770;DHT22;73763;48.936;9.300;2024-01-15T09:06:31;0.90;89.20
83770;DHT22;73763;48.936;9.300;2024-01-15T09:08:57;0.90;88.80
83770;DHT22;73763;48.936;9.300;2024-01-15T09:11:22;1.00;88.90
83770;DHT22;73763;48.936;9.300;2024-01-15T09:13:48;1.00;88.40
83770;DHT22;73763;48.936;9.300;2024-01-15T09:16:13;1.00;87.80
83770;DHT22;73763;48.936;9.300;2024-01-15T09:18:39;1.10;88.10
83770;DHT22;73763;48.936;9.300;2024-01-15T09:21:04;1.20;86.50
83770;DHT22;73763;48.936;9.300;2024-01-15T09:23:30;1.20;87.10
83770;DHT22;73763;48.936;9.300;2024-01-15T09:25:55;1.30;85.80
83770;DHT22;73763;48.936;9.300;2024-01-15T09:28:21;1.30;85.40
83770;DHT22;73763;48.936;9.300;2024-01-15T09:30:46;1.30;85.50
83770;DHT22;73763;48.936;9.300;2024-01-15T09:33:12;1.30;85.50
83770;DHT22;73763;48.936;9.300;2024-01-15T09:35:38;1.30;86.00
83770;DHT22;73763;48.936;9.300;2024-01-15T09:38:04;1.20;85.90
83770;DHT22;73763;48.936;9.300;2024-01-15T09:40:31;1.20;86.50
83770;DHT22;73763;48.936;9.300;2024-01-15T09:42:57;1.20;86.40
83770;DHT22;73763;48.936;9.300;2024-01-15T09:45:23;1.40;86.00
83770;DHT22;73763;48.936;9.300;2024-01-15T09:47:48;1.50;85.90
83770;DHT22;73763;48.936;9.300;2024-01-15T09:50:14;1.50;85.50
83770;DHT22;73763;48.936;9.300;2024-01-15T09:52:40;1.50;85.80
83770;DHT22;73763;48.936;9.300;2024-01-15T09:55:07;1.50;85.50
83770;DHT22;73763;48.936;9.300;2024-01-15T09:57:34;1.50;86.20
83770;DHT22;73763;48.936;9.300;2024-01-15T10:00:02;1.50;86.50
83770;DHT22;73763;48.936;9.300;2024-01-15T10:02:27;1.50;86.60
83770;DHT22;73763;48.936;9.300;2024-01-15T10:04:53;1.60;87.00
83770;DHT22;73763;48.936;9.300;2024-01-15T10:07:19;1.60;86.90
83770;DHT22;73763;48.936;9.300;2024-01-15T10:09:45;1.60;85.50
83770;DHT22;73763;48.936;9.300;2024-01-15T10:12:11;1.60;85.00
83770;DHT22;73763;48.936;9.300;2024-01-15T10:14:37;1.60;84.40
83770;DHT22;73763;48.936;9.300;2024-01-15T10:17:12;1.60;83.90
83770;DHT22;73763;48.936;9.300;2024-01-15T10:19:37;1.60;83.10
83770;DHT22;73763;48.936;9.300;2024-01-15T10:22:03;1.60;83.50
83770;DHT22;73763;48.936;9.300;2024-01-15T10:24:29;1.60;83.30
83770;DHT22;73763;48.936;9.300;2024-01-15T10:27:05;1.60;82.60
83770;DHT22;73763;48.936;9.300;2024-01-15T10:29:31;1.50;82.80
83770;DHT22;73763;48.936;9.300;2024-01-15T10:31:56;1.50;83.10
83770;DHT22;73763;48.936;9.300;2024-01-15T10:34:22;1.50;83.60
83770;DHT22;73763;48.936;9.300;2024-01-15T10:36:47;1.40;83.50
83770;DHT22;73763;48.936;9.300;2024-01-15T10:39:13;1.40;83.80
83770;DHT22;73763;48.936;9.300;2024-01-15T10:41:39;1.40;83.50
83770;DHT22;73763;48.936;9.300;2024-01-15T10:44:04;1.40;83.80
83770;DHT22;73763;48.936;9.300;2024-01-15T10:46:31;1.40;84.30
83770;DHT22;73763;48.936;9.300;2024-01-15T10:48:57;1.40;85.00
83770;DHT22;73763;48.936;9.300;2024-01-15T10:51:23;1.50;84.80
83770;DHT22;73763;48.936;9.300;2024-01-15T10:53:49;1.50;84.10
83770;DHT22;73763;48.936;9.300;2024-01-15T10:56:15;1.40;84.40
83770;DHT22;73763;48.936;9.300;2024-01-15T10:58:41;1.40;85.10
83770;DHT22;73763;48.936;9.300;2024-01-15T11:01:08;1.40;86.10
83770;DHT22;73763;48.936;9.300;2024-01-15T11:03:34;1.30;88.60
83770;DHT22;73763;48.936;9.300;2024-01-15T11:06:00;1.20;90.60
83770;DHT22;73763;48.936;9.300;2024-01-15T11:08:25;0.80;92.70
83770;DHT22;73763;48.936;9.300;2024-01-15T11:10:51;0.60;94.00
83770;DHT22;73763;48.936;9.300;2024-01-15T11:13:21;0.50;94.40
83770;DHT22;73763;48.936;9.300;2024-01-15T11:18:28;0.40;95.20
83770;DHT22;73763;48.936;9.300;2024-01-15T11:23:58;0.30;96.60
83770;DHT22;73763;48.936;9.300;2024-01-15T11:28:56;0.10;97.30
83770;DHT22;73763;48.936;9.300;2024-01-15T11:31:29;0.10;97.70
83770;DHT22;73763;48.936;9.300;2024-01-15T11:33:55;0.10;97.90
83770;DHT22;73763;48.936;9.300;2024-01-15T11:42:03;0.20;97.80
83770;DHT22;73763;48.936;9.300;2024-01-15T11:44:30;0.20;97.80
83770;DHT22;73763;48.936;9.300;2024-01-15T11:47:01;0.30;97.90
83770;DHT22;73763;48.936;9.300;2024-01-15T11:52:16;0.40;97.90
83770;DHT22;73763;48.936;9.300;2024-01-15T11:54:49;0.30;97.90
83770;DHT22;73763;48.936;9.300;2024-01-15T11:57:22;0.30;98.00
83770;DHT22;73763;48.936;9.300;2024-01-15T11:59:51;0.30;98.00
83770;DHT22;73763;48.936;9.300;2024-01-15T12:02:16;0.30;98.10
83770;DHT22;73763;48.936;9.300;2024-01-15T12:04:42;0.30;98.20
83770;DHT22;73763;48.936;9.300;2024-01-15T12:07:07;0.30;98.30
83770;DHT22;73763;48.936;9.300;2024-01-15T12:09:33;0.30;98.20
83770;DHT22;73763;48.936;9.300;2024-01-15T12:12:03;0.30;98.20
83770;DHT22;73763;48.936;9.300;2024-01-15T12:14:32;0.40;98.30
83770;DHT22;73763;48.936;9.300;2024-01-15T12:16:58;0.40;98.20
83770;DHT22;73763;48.936;9.300;2024-01-15T12:19:24;0.40;98.30
83770;DHT22;73763;48.936;9.300;2024-01-15T12:21:52;0.30;98.40
83770;DHT22;73763;48.936;9.300;2024-01-15T12:24:18;0.30;98.50
83770;DHT22;73763;48.936;9.300;2024-01-15T12:26:44;0.30;98.60
83770;DHT22;73763;48.936;9.300;2024-01-15T12:29:11;0.30;98.80
83770;DHT22;73763;48.936;9.300;2024-01-15T12:31:36;0.30;99.00
83770;DHT22;73763;48.936;9.300;2024-01-15T12:34:02;0.20;99.10
83770;DHT22;73763;48.936;9.300;2024-01-15T12:36:30;0.30;99.30
83770;DHT22;73763;48.936;9.300;2024-01-15T12:38:59;0.40;99.20
83770;DHT22;73763;48.936;9.300;2024-01-15T12:41:25;0.40;99.00
83770;DHT22;73763;48.936;9.300;2024-01-15T12:43:50;0.40;99.10
83770;DHT22;73763;48.936;9.300;2024-01-15T12:46:16;0.40;99.20
83770;DHT22;73763;48.936;9.300;2024-01-15T12:48:42;0.40;99.30
83770;DHT22;73763;48.936;9.300;2024-01-15T12:51:08;0.30;99.30
83770;DHT22;73763;48.936;9.300;2024-01-15T12:53:33;0.50;99.50
83770;DHT22;73763;48.936;9.300;2024-01-15T12:55:59;0.50;99.40
83770;DHT22;73763;48.936;9.300;2024-01-15T12:58:24;0.50;99.30
83770;DHT22;73763;48.936;9.300;2024-01-15T13:00:50;0.60;99.00
83770;DHT22;73763;48.936;9.300;2024-01-15T13:03:15;0.50;99.00
83770;DHT22;73763;48.936;9.300;2024-01-15T13:05:41;0.60;99.00
83770;DHT22;73763;48.936;9.300;2024-01-15T13:08:07;0.60;99.00
83770;DHT22;73763;48.936;9.300;2024-01-15T13:10:32;0.50;99.00
83770;DHT22;73763;48.936;9.300;2024-01-15T13:12:58;0.50;99.20
83770;DHT22;73763;48.936;9.300;2024-01-15T13:15:25;0.50;99.10
83770;DHT22;73763;48.936;9.300;2024-01-15T13:17:51;0.50;99.10
83770;DHT22;73763;48.936;9.300;2024-01-15T13:20:16;0.50;98.80
83770;DHT22;73763;48.936;9.300;2024-01-15T13:22:42;0.60;98.60
83770;DHT22;73763;48.936;9.300;2024-01-15T13:25:07;0.70;98.40
83770;DHT22;73763;48.936;9.300;2024-01-15T13:27:33;0.70;98.40
83770;DHT22;73763;48.936;9.300;2024-01-15T13:29:58;0.50;98.80
83770;DHT22;73763;48.936;9.300;2024-01-15T13:32:25;0.50;99.30
83770;DHT22;73763;48.936;9.300;2024-01-15T13:34:50;0.40;99.60
83770;DHT22;73763;48.936;9.300;2024-01-15T13:37:16;0.50;99.90
83770;DHT22;73763;48.936;9.300;2024-01-15T13:39:42;0.50;99.90
83770;DHT22;73763;48.936;9.300;2024-01-15T13:42:07;0.50;99.80
83770;DHT22;73763;48.936;9.300;2024-01-15T13:44:33;0.50;99.50
83770;DHT22;73763;48.936;9.300;2024-01-15T13:46:58;0.60;99.40
83770;DHT22;73763;48.936;9.300;2024-01-15T13:49:24;0.60;99.60
83770;DHT22;73763;48.936;9.300;2024-01-15T13:51:50;0.60;99.00
83770;DHT22;73763;48.936;9.300;2024-01-15T13:54:15;0.60;98.90
83770;DHT22;73763;48.936;9.300;2024-01-15T13:56:41;0.60;98.80
83770;DHT22;73763;48.936;9.300;2024-01-15T13:59:06;0.60;98.80
83770;DHT22;73763;48.936;9.300;2024-01-15T14:01:32;0.60;98.70
83770;DHT22;73763;48.936;9.300;2024-01-15T14:03:58;0.50;98.80
83770;DHT22;73763;48.936;9.300;2024-01-15T14:06:23;0.50;98.90
83770;DHT22;73763;48.936;9.300;2024-01-15T14:08:49;0.50;98.90
83770;DHT22;73763;48.936;9.300;2024-01-15T14:11:14;0.50;98.90
83770;DHT22;73763;48.936;9.300;2024-01-15T14:13:40;0.50;98.70
83770;DHT22;73763;48.936;9.300;2024-01-15T14:16:06;0.40;98.70
83770;DHT22;73763;48.936;9.300;2024-01-15T14:18:31;0.50;98.80
83770;DHT22;73763;48.936;9.300;2024-01-15T14:20:57;0.50;98.50
83770;DHT22;73763;48.936;9.300;2024-01-15T14:23:22;0.40;98.50
83770;DHT22;73763;48.936;9.300;2024-01-15T14:25:48;0.40;98.50
83770;DHT22;73763;48.936;9.300;2024-01-15T14:28:13;0.40;98.50
83770;DHT22;73763;48.936;9.300;2024-01-15T14:30:39;0.40;98.20
83770;DHT22;73763;48.936;9.300;2024-01-15T14:33:04;0.40;98.30
83770;DHT22;73763;48.936;9.300;2024-01-15T14:35:30;0.30;98.20
83770;DHT22;73763;48.936;9.300;2024-01-15T14:37:55;0.30;98.50
83770;DHT22;73763;48.936;9.300;2024-01-15T14:40:21;0.30;98.60
83770;DHT22;73763;48.936;9.300;2024-01-15T14:42:46;0.20;98.70
83770;DHT22;73763;48.936;9.300;2024-01-15T14:45:12;0.20;98.70
83770;DHT22;73763;48.936;9.300;2024-01-15T14:47:38;0.20;98.60
83770;DHT22;73763;48.936;9.300;2024-01-15T14:50:08;0.20;98.50
83770;DHT22;73763;48.936;9.300;2024-01-15T14:52:34;0.30;98.10
83770;DHT22;73763;48.936;9.300;2024-01-15T14:55:00;0.20;98.00
83770;DHT22;73763;48.936;9.300;2024-01-15T14:57:26;0.30;97.90
83770;DHT22;73763;48.936;9.300;2024-01-15T14:59:51;0.30;97.50
83770;DHT22;73763;48.936;9.300;2024-01-15T15:02:18;0.20;97.40
83770;DHT22;73763;48.936;9.300;2024-01-15T15:04:43;0.30;97.50
83770;DHT22;73763;48.936;9.300;2024-01-15T15:07:09;0.30;97.50
83770;DHT22;73763;48.936;9.300;2024-01-15T15:09:34;0.20;97.10
83770;DHT22;73763;48.936;9.300;2024-01-15T15:12:00;0.20;97.10
83770;DHT22;73763;48.936;9.300;2024-01-15T15:14:25;0.20;97.10
83770;DHT22;73763;48.936;9.300;2024-01-15T15:16:51;0.20;97.10
83770;DHT22;73763;48.936;9.300;2024-01-15T15:19:16;0.20;97.00
83770;DHT22;73763;48.936;9.300;2024-01-15T15:21:42;0.20;97.00
83770;DHT22;73763;48.936;9.300;2024-01-15T15:24:07;0.20;97.10
83770;DHT22;73763;48.936;9.300;2024-01-15T15:26:33;0.20;97.00
83770;DHT22;73763;48.936;9.300;2024-01-15T15:28:58;0.20;97.10
83770;DHT22;73763;48.936;9.300;2024-01-15T15:31:24;0.10;97.10
83770;DHT22;73763;48.936;9.300;2024-01-15T15:33:49;0.20;97.00
83770;DHT22;73763;48.936;9.300;2024-01-15T15:36:15;0.10;96.70
83770;DHT22;73763;48.936;9.300;2024-01-15T15:38:41;0.10;96.70
83770;DHT22;73763;48.936;9.300;2024-01-15T15:41:12;0.10;96.70
83770;DHT22;73763;48.936;9.300;2024-01-15T15:43:37;0.10;96.70